Flight Track Log - Related Links

Times and Time Zones

All times are in EDT time to prevent confusion due to time zone crossing. See the N523JM flight status page for this flight to view local times or setup timezone preferences in your user account.

Time Position Orientation Groundspeed Altitude Reporting Facility
EDT Latitude Longitude Course Direction KTS MPH feet Rate Location/Type
Fri 03:05:20 PM 36.0758 -115.1178 88° East 180 207 3,400  Level Los Angeles Center
Fri 03:06:03 PM 36.0769 -115.0683 88° East 197 227 5,700 3,134 Climbing Los Angeles Center
Fri 03:06:27 PM 36.0769 -115.0428 90° East 205 236 6,900 2,806 Climbing Los Angeles Center
Fri 03:07:05 PM 36.0803 -114.9950 85° East 212 244 8,600 2,951 Climbing Los Angeles Center
Fri 03:07:28 PM 36.0819 -114.9667 86° East 219 252 9,900 3,143 Climbing Los Angeles Center
Fri 03:08:08 PM 36.0889 -114.9144 81° East 219 252 11,900 2,754 Climbing Los Angeles Center
Fri 03:08:29 PM 36.0942 -114.8853 77° East 231 266 12,700 1,935 Climbing Los Angeles Center
Fri 03:09:10 PM 36.1000 -114.8383 81° East 238 274 13,900 1,689 Climbing Los Angeles Center
Fri 03:10:12 PM 36.1153 -114.7431 79° East 277 319 15,600 1,645 Climbing Los Angeles Center
Fri 03:11:14 PM 36.1367 -114.6050 79° East 339 390 17,300 1,645 Climbing Los Angeles Center
Fri 03:12:16 PM 36.1567 -114.4775 79° East 371 427 19,000 1,548 Climbing Los Angeles Center
Fri 03:13:18 PM 36.1778 -114.3408 79° East 398 458 20,500 1,440 Climbing Los Angeles Center
Fri 03:14:21 PM 36.1989 -114.1994 79° East 414 476 22,000 1,392 Climbing Los Angeles Center
Fri 03:15:23 PM 36.2153 -114.0533 82° East 423 487 23,400 1,403 Climbing Los Angeles Center
Fri 03:16:25 PM 36.2325 -113.9058 82° East 431 496 24,900 1,548 Climbing Los Angeles Center
Fri 03:17:27 PM 36.2539 -113.7267 82° East 435 501 26,600 1,500 Climbing Los Angeles Center
Fri 03:18:29 PM 36.2717 -113.5750 82° East 441 507 28,000 1,258 Climbing Los Angeles Center
Fri 03:19:31 PM 36.2889 -113.4192 82° East 451 519 29,200 1,161 Climbing Los Angeles Center
Fri 03:20:33 PM 36.3072 -113.2639 82° East 453 521 30,400 1,056 Climbing Los Angeles Center
Fri 03:21:36 PM 36.3517 -113.1119 70° East 467 537 31,400 912 Climbing Los Angeles Center
Fri 03:22:38 PM 36.4056 -112.9642 66° East 467 537 32,300 919 Climbing Los Angeles Center
Fri 03:23:40 PM 36.4694 -112.7833 66° East 471 542 33,300 968 Climbing Los Angeles Center
Fri 03:24:42 PM 36.5219 -112.6308 67° East 474 545 34,300 871 Climbing Los Angeles Center
Fri 03:25:44 PM 36.5758 -112.4800 66° East 478 550 35,100 768 Climbing Los Angeles Center
Fri 03:26:47 PM 36.6292 -112.3264 67° East 481 554 35,900 720 Climbing Los Angeles Center
Fri 03:27:49 PM 36.6825 -112.1747 66° East 481 554 36,600 532 Climbing Los Angeles Center
Fri 03:28:51 PM 36.7450 -111.9919 67° East 481 554 37,000 194 Climbing Los Angeles Center
Fri 03:29:53 PM 36.7997 -111.8342 67° East 493 567 37,000  Level Los Angeles Center
Fri 03:30:55 PM 36.8547 -111.6717 67° East 507 583 37,000  Level Los Angeles Center
Fri 03:31:57 PM 36.9122 -111.5061 66° East 519 597 37,000  Level Los Angeles Center
Fri 03:32:59 PM 36.9692 -111.3383 67° East 521 600 37,000  Level Los Angeles Center
Fri 03:34:02 PM 37.0422 -111.1403 65° Northeast 523 602 37,000  Level Los Angeles Center
Fri 03:35:25 PM 37.1244 -110.9083 66° East 524 603 37,000  Level Denver Center
Fri 03:36:27 PM 37.1833 -110.7411 66° East 524 603 37,000  Level Denver Center
Fri 03:37:29 PM 37.2422 -110.5750 66° East 524 603 37,000  Level Denver Center
Fri 03:38:31 PM 37.3017 -110.4089 66° East 524 603 37,000  Level Denver Center
Fri 03:39:33 PM 37.3603 -110.2431 66° East 524 603 37,000  Level Denver Center
Fri 03:40:36 PM 37.4228 -110.0656 66° East 523 602 37,000  Level Denver Center
Fri 03:41:38 PM 37.4869 -109.8806 66° East 517 595 37,000  Level Denver Center
Fri 03:42:40 PM 37.5397 -109.7214 67° East 517 595 37,000  Level Denver Center
Fri 03:43:42 PM 37.6036 -109.5364 66° East 516 594 37,000  Level Denver Center
Fri 03:44:44 PM 37.6578 -109.3778 67° East 516 594 37,000  Level Denver Center
Fri 03:45:46 PM 37.7197 -109.1931 67° East 514 592 37,000  Level Denver Center
Fri 03:46:48 PM 37.7736 -109.0347 67° East 513 590 37,000  Level Denver Center
Fri 03:47:50 PM 37.8253 -108.8467 71° East 513 590 37,000  Level Denver Center
Fri 03:48:52 PM 37.8564 -108.6775 77° East 513 590 37,000  Level Denver Center
Fri 03:49:54 PM 37.8922 -108.4808 77° East 514 592 37,000  Level Denver Center
Fri 03:50:56 PM 37.9239 -108.3122 77° East 514 592 37,000  Level Denver Center
Fri 03:51:58 PM 37.9608 -108.1144 77° East 514 592 37,000  Level Denver Center
Fri 03:53:01 PM 37.9914 -107.9464 77° East 514 592 37,000  Level Denver Center
Fri 03:54:03 PM 38.0269 -107.7481 77° East 515 593 37,000  Level Denver Center
Fri 03:55:05 PM 38.0578 -107.5764 77° East 518 596 37,000  Level Denver Center
Fri 03:56:07 PM 38.0928 -107.3767 77° East 519 597 37,000  Level Denver Center
Fri 03:57:09 PM 38.1236 -107.2064 77° East 519 597 37,000  Level Denver Center
Fri 03:58:11 PM 38.1539 -107.0267 78° East 517 595 37,000  Level Denver Center
Fri 03:59:13 PM 38.1867 -106.8381 77° East 517 595 37,000  Level Denver Center
Fri 04:00:15 PM 38.2144 -106.6669 78° East 518 596 37,000  Level Denver Center
Fri 04:01:17 PM 38.2453 -106.4892 77° East 522 601 37,000  Level Denver Center
Fri 04:02:19 PM 38.2811 -106.2739 78° East 522 601 37,000  Level Denver Center
Fri 04:03:21 PM 38.3125 -106.0858 78° East 521 600 37,000  Level Denver Center
Fri 04:04:23 PM 38.3408 -105.9069 79° East 517 595 37,000  Level Denver Center
Fri 04:05:26 PM 38.3742 -105.7122 78° East 518 596 37,000 336 Level Denver Center
Fri 04:06:28 PM 38.4011 -105.5361 79° East 513 590 37,700 823 Climbing Denver Center
Fri 04:07:30 PM 38.4281 -105.3650 79° East 500 575 38,700 629 Climbing Denver Center
Fri 04:08:32 PM 38.4533 -105.1983 79° East 488 562 39,000 145 Climbing Denver Center
Fri 04:09:34 PM 38.4800 -105.0311 78° East 487 560 39,000  Level Denver Center
Fri 04:10:36 PM 38.5061 -104.8592 79° East 490 564 39,000  Level Denver Center
Fri 04:11:38 PM 38.5381 -104.6494 79° East 499 574 39,000  Level Denver Center
Fri 04:12:40 PM 38.5647 -104.4739 79° East 505 581 39,000  Level Denver Center
Fri 04:13:42 PM 38.5908 -104.2958 79° East 509 586 39,000  Level Denver Center
Fri 04:14:44 PM 38.6169 -104.1194 79° East 509 586 39,000  Level Denver Center
Fri 04:15:46 PM 38.6475 -103.9111 79° East 509 586 39,000  Level Denver Center
Fri 04:16:48 PM 38.6728 -103.7303 80° East 513 590 39,000  Level Denver Center
Fri 04:17:51 PM 38.6981 -103.5492 80° East 514 592 39,000  Level Denver Center
Fri 04:18:53 PM 38.7244 -103.3672 79° East 515 593 39,000  Level Denver Center
Fri 04:19:55 PM 38.7503 -103.1853 80° East 518 596 39,000  Level Denver Center
Fri 04:20:57 PM 38.7733 -103.0042 81° East 518 596 39,000  Level Denver Center
Fri 04:21:59 PM 38.8039 -102.7864 80° East 518 596 39,000  Level Denver Center
Fri 04:23:01 PM 38.8269 -102.6067 81° East 518 596 39,000  Level Denver Center
Fri 04:24:03 PM 38.8506 -102.4336 80° East 517 595 39,000  Level Denver Center
Fri 04:25:05 PM 38.8761 -102.2317 81° East 517 595 39,000  Level Denver Center
Fri 04:26:07 PM 38.8989 -102.0558 80° East 517 595 39,000  Level Denver Center
Fri 04:27:09 PM 38.9244 -101.8525 81° East 517 595 39,000  Level Denver Center
Fri 04:28:11 PM 38.9461 -101.6772 81° East 517 595 39,000  Level Denver Center
Fri 04:29:14 PM 38.9731 -101.4725 80° East 518 596 39,000  Level Denver Center
Fri 04:30:16 PM 39.0142 -101.3019 73° East 520 598 39,000  Level Denver Center
Fri 04:31:18 PM 39.0578 -101.1164 73° East 520 598 39,000  Level Denver Center
Fri 04:32:20 PM 39.1050 -100.9164 73° East 521 600 39,000  Level Denver Center
Fri 04:33:22 PM 39.1447 -100.7419 74° East 524 603 39,000  Level Denver Center
Fri 04:34:24 PM 39.1625 -100.5661 83° East 524 603 39,000  Level Denver Center
Fri 04:35:26 PM 39.1836 -100.3581 82° East 524 603 39,000  Level Denver Center
Fri 04:36:28 PM 39.2022 -100.1792 82° East 525 604 39,000  Level Denver Center
Fri 04:37:30 PM 39.2236 -99.9806 82° East 526 605 39,000  Level Denver Center
Fri 04:38:32 PM 39.2433 -99.7911 82° East 527 606 39,000  Level Denver Center
Fri 04:39:34 PM 39.2642 -99.5789 83° East 531 611 39,000  Level Denver Center
Fri 04:40:36 PM 39.2819 -99.3972 83° East 534 615 39,000  Level Denver Center
Fri 04:41:38 PM 39.3019 -99.1853 83° East 534 615 39,000  Level Denver Center
Fri 04:42:40 PM 39.3192 -99.0028 83° East 534 615 39,000  Level Denver Center
Fri 04:43:43 PM 39.3386 -98.7958 83° East 536 617 39,000  Level Denver Center
Fri 04:44:45 PM 39.3561 -98.6061 83° East 536 617 39,000  Level Denver Center
Fri 04:45:47 PM 39.3731 -98.4167 83° East 534 615 39,000  Level Denver Center
Fri 04:46:49 PM 39.3936 -98.1894 83° East 533 613 39,000  Level Denver Center
Fri 04:47:54 PM 39.4072 -98.0211 84° East 531 611 39,000  Level Kansas City Center
Fri 04:48:58 PM 39.4264 -97.8100 83° East 535 616 39,000  Level Kansas City Center
Fri 04:49:59 PM 39.4425 -97.6186 84° East 536 617 39,000  Level Kansas City Center
Fri 04:51:03 PM 39.4592 -97.4103 84° East 534 615 39,000  Level Kansas City Center
Fri 04:52:03 PM 39.4747 -97.2172 84° East 534 615 39,000  Level Kansas City Center
Fri 04:53:06 PM 39.4897 -97.0247 84° East 537 618 39,000  Level Kansas City Center
Fri 04:54:08 PM 39.5047 -96.8311 84° East 538 619 39,000  Level Kansas City Center
Fri 04:55:12 PM 39.5225 -96.6000 84° East 538 619 39,000  Level Kansas City Center
Fri 04:56:13 PM 39.5356 -96.4042 85° East 541 623 39,000  Level Kansas City Center
Fri 04:57:14 PM 39.5500 -96.2106 84° East 541 623 39,000  Level Kansas City Center
Fri 04:58:17 PM 39.5636 -96.0169 85° East 540 621 39,000  Level Kansas City Center
Fri 04:59:18 PM 39.5758 -95.8239 85° East 540 621 39,000  Level Kansas City Center
Fri 05:00:19 PM 39.5886 -95.6286 85° East 540 621 39,000  Level Kansas City Center
Fri 05:01:23 PM 39.6014 -95.4333 85° East 540 621 39,000  Level Kansas City Center
Fri 05:02:24 PM 39.6153 -95.1972 86° East 540 621 39,000  Level Kansas City Center
Fri 05:03:28 PM 39.6267 -95.0008 86° East 541 623 39,000  Level Kansas City Center
Fri 05:04:28 PM 39.6378 -94.8042 86° East 541 623 39,000  Level Kansas City Center
Fri 05:05:32 PM 39.6494 -94.6089 86° East 541 623 39,000  Level Kansas City Center
Fri 05:06:34 PM 39.6594 -94.4128 86° East 542 624 39,000  Level Kansas City Center
Fri 05:07:34 PM 39.6703 -94.2167 86° East 543 625 39,000  Level Kansas City Center
Fri 05:08:38 PM 39.6797 -94.0219 86° East 543 625 39,000  Level Kansas City Center
Fri 05:09:39 PM 39.6922 -93.7867 86° East 543 625 39,000  Level Kansas City Center
Fri 05:10:41 PM 39.6992 -93.6103 87° East 543 625 39,000  Level Kansas City Center
Fri 05:11:42 PM 39.7083 -93.4142 86° East 545 627 39,000  Level Kansas City Center
Fri 05:12:46 PM 39.7203 -93.1853 86° East 544 626 39,000  Level Kansas City Center
Fri 05:13:47 PM 39.7278 -92.9906 87° East 544 626 39,000  Level Kansas City Center
Fri 05:14:48 PM 39.7358 -92.7953 87° East 545 627 39,000  Level Kansas City Center
Fri 05:15:52 PM 39.7428 -92.6028 87° East 545 627 39,000  Level Kansas City Center
Fri 05:16:52 PM 39.7514 -92.3717 87° East 545 627 39,000  Level Kansas City Center
Fri 05:17:57 PM 39.7583 -92.1781 87° East 545 627 39,000  Level Kansas City Center
Fri 05:18:57 PM 39.7644 -91.9822 88° East 545 627 39,000  Level Kansas City Center
Fri 05:19:59 PM 39.7708 -91.7869 88° East 546 628 39,000  Level Kansas City Center
Fri 05:21:03 PM 39.7786 -91.5508 87° East 547 629 39,000  Level Kansas City Center
Fri 05:22:04 PM 39.7839 -91.3519 88° East 551 634 39,000  Level Kansas City Center
Fri 05:23:07 PM 39.7900 -91.1531 88° East 553 636 39,000  Level Kansas City Center
Fri 05:24:08 PM 39.7944 -90.9653 88° East 554 638 39,000  Level Kansas City Center
Fri 05:25:12 PM 39.8006 -90.7233 88° East 556 640 39,000  Level Kansas City Center
Fri 05:26:13 PM 39.8047 -90.5225 88° East 557 641 39,000  Level Kansas City Center
Fri 05:27:13 PM 39.8083 -90.3214 89° East 557 641 39,000  Level Kansas City Center
Fri 05:28:18 PM 39.8117 -90.1194 89° East 558 642 39,000  Level Kansas City Center
Fri 05:29:19 PM 39.8156 -89.9175 88° East 558 642 39,000  Level Kansas City Center
Fri 05:30:20 PM 39.8183 -89.6733 89° East 562 647 39,000  Level Kansas City Center
Fri 05:31:23 PM 39.8206 -89.4697 89° East 563 648 39,000  Level Kansas City Center
Fri 05:32:24 PM 39.8239 -89.2667 89° East 563 648 39,000  Level Kansas City Center
Fri 05:33:28 PM 39.8242 -89.0628 90° East 563 648 39,000  Level Kansas City Center
Fri 05:34:28 PM 39.8264 -88.8583 89° East 564 649 39,000  Level Kansas City Center
Fri 05:35:31 PM 39.8275 -88.6536 90° East 566 651 39,000  Level Kansas City Center
Fri 05:36:32 PM 39.8289 -88.4078 89° East 566 651 39,000  Level Kansas City Center
Fri 05:37:36 PM 39.8283 -88.2014 90° East 568 654 39,000  Level Kansas City Center
Fri 05:38:37 PM 39.8292 -87.9961 90° East 568 654 39,000  Level Kansas City Center
Fri 05:39:07 PM 39.8278 -87.8661 91° East 571 657 39,000  Level Indianapolis Center
Fri 05:40:09 PM 39.8269 -87.6583 90° East 572 658 39,000  Level Indianapolis Center
Fri 05:41:11 PM 39.8267 -87.4506 90° East 572 658 39,000  Level Indianapolis Center
Fri 05:42:13 PM 39.8253 -87.2425 90° East 573 659 39,000  Level Indianapolis Center
Fri 05:43:15 PM 39.8233 -87.0333 91° East 575 662 39,000  Level Indianapolis Center
Fri 05:44:17 PM 39.8364 -86.8267 85° East 577 664 39,000  Level Indianapolis Center
Fri 05:45:20 PM 39.8717 -86.5800 79° East 577 664 39,000 -96 Level Indianapolis Center
Fri 05:46:22 PM 39.9000 -86.3708 80° East 577 664 38,800 -823 Descending Indianapolis Center
Fri 05:47:24 PM 39.9278 -86.1550 80° East 584 672 37,300 -1,597 Descending Indianapolis Center
Fri 05:48:26 PM 39.9542 -85.9453 81° East 585 673 35,500 -1,694 Descending Indianapolis Center
Fri 05:49:28 PM 39.9789 -85.7550 80° East 543 625 33,800 -1,742 Descending Indianapolis Center
Fri 05:50:30 PM 40.0006 -85.5783 81° East 502 578 31,900 -2,081 Descending Indianapolis Center
Fri 05:51:32 PM 40.0208 -85.4061 81° East 485 558 29,500 -1,403 Descending Indianapolis Center
Fri 05:52:34 PM 40.0486 -85.2342 78° East 485 558 29,000 -823 Descending Indianapolis Center
Fri 05:53:36 PM 40.0942 -85.0267 74° East 492 566 27,800 -1,500 Descending Indianapolis Center
Fri 05:54:38 PM 40.1261 -84.8619 76° East 506 582 25,900 -1,839 Descending Indianapolis Center
Fri 05:55:40 PM 40.1606 -84.6894 75° East 497 572 24,000 -912 Descending Indianapolis Center
Fri 05:56:43 PM 40.1936 -84.5203 76° East 485 558 24,000 -1,056 Level Indianapolis Center
Fri 05:57:45 PM 40.2361 -84.3108 75° East 493 567 21,800 -2,274 Descending Indianapolis Center
Fri 05:58:47 PM 40.2708 -84.1358 75° East 496 571 19,300 -2,419 Descending Indianapolis Center
Fri 05:59:49 PM 40.3022 -83.9639 76° East 491 565 16,800 -2,468 Descending Indianapolis Center
Fri 06:00:51 PM 40.3364 -83.7994 75° East 473 544 14,200 -2,637 Descending Indianapolis Center
Fri 06:01:20 PM 40.3522 -83.7133 76° East 428 493 12,800 -2,419 Descending Indianapolis Center
Fri 06:01:53 PM 40.3661 -83.6517 74° East 425 489 11,700 -1,612 Descending Indianapolis Center
Fri 06:02:27 PM 40.3828 -83.5564 77° East 392 451 11,000 -774 Descending Indianapolis Center
Fri 06:02:55 PM 40.3800 -83.5139 95° East 387 445 10,900 -689 Descending Indianapolis Center
Fri 06:03:28 PM 40.3397 -83.4392 125° Southeast 346 398 10,300 -871 Descending Indianapolis Center
Fri 06:03:57 PM 40.3250 -83.4108 124° Southeast 355 409 10,000 -1,527 Descending Indianapolis Center
Fri 06:04:23 PM 40.2958 -83.3522 123° Southeast 304 350 8,900 -2,419 Descending Indianapolis Center
Fri 06:04:59 PM 40.2708 -83.2981 121° Southeast 311 358 7,500 -1,347 Descending Indianapolis Center
Fri 06:06:01 PM 40.2347 -83.2147 120° Southeast 273 314 6,700 -990 Descending Indianapolis Center
Fri 06:06:42 PM 40.2136 -83.1603 117° Southeast 240 276 5,800 -1,258 Descending Indianapolis Center
Fri 06:07:03 PM 40.2053 -83.1394 118° Southeast 241 277 5,400 -1,527 Descending Indianapolis Center
Fri 06:07:37 PM 40.1883 -83.0933 116° Southeast 228 262 4,400 -1,238 Descending Indianapolis Center
Fri 06:08:06 PM 40.1781 -83.0656 116° Southeast 234 269 4,100 -787 Descending Indianapolis Center
Fri 06:08:38 PM 40.1572 -83.0250 124° Southeast 216 249 3,600 -871 Descending Indianapolis Center
Fri 06:09:08 PM 40.1472 -82.9983 116° Southeast 224 258 3,200 -885 Descending Indianapolis Center
Fri 06:09:39 PM 40.1264 -82.9736 138° Southeast 174 200 2,700 -581 Descending Indianapolis Center
Fri 06:10:10 PM 40.1083 -82.9664 163° South 189 217 2,600 -393 Descending Indianapolis Center
Fri 06:10:40 PM 40.0794 -82.9797 199° South 171 197 2,300 -677 Descending Indianapolis Center
Fri 06:11:12 PM 40.0789 -83.0072 268° West 174 200 1,900 -889 Descending Indianapolis Center
Fri 06:11:34 PM 40.0789 -83.0317 270° West 153 176 1,500 -677 Descending Indianapolis Center
Fri 06:12:14 PM 40.0772 -83.0664 266° West 161 185 1,200 -450 Descending Indianapolis Center
Fri 06:14:00 PM 40.0667 -83.0667 270° West  Level FlightAware Approximate

Login

Don't have an account? Register now (free) for customized features, flight alerts, and more!